sensor_id;sensor_type;location;lat;lon;timestamp;P1;durP1;ratioP1;P2;durP2;ratioP2
70026;SDS011;57506;50.092;15.804;2022-10-17T00:00:24;49.50;;;26.93;;
70026;SDS011;57506;50.092;15.804;2022-10-17T00:02:50;51.08;;;28.10;;
70026;SDS011;57506;50.092;15.804;2022-10-17T00:05:15;48.67;;;27.60;;
70026;SDS011;57506;50.092;15.804;2022-10-17T00:07:40;45.27;;;27.03;;
70026;SDS011;57506;50.092;15.804;2022-10-17T00:10:06;52.28;;;27.80;;
70026;SDS011;57506;50.092;15.804;2022-10-17T00:12:32;51.57;;;27.97;;
70026;SDS011;57506;50.092;15.804;2022-10-17T00:14:57;53.37;;;28.53;;
70026;SDS011;57506;50.092;15.804;2022-10-17T00:17:23;51.35;;;27.95;;
70026;SDS011;57506;50.092;15.804;2022-10-17T00:19:48;56.97;;;29.07;;
70026;SDS011;57506;50.092;15.804;2022-10-17T00:22:14;56.97;;;29.53;;
70026;SDS011;57506;50.092;15.804;2022-10-17T00:24:39;57.65;;;30.08;;
70026;SDS011;57506;50.092;15.804;2022-10-17T00:27:05;55.60;;;29.70;;
70026;SDS011;57506;50.092;15.804;2022-10-17T00:29:30;51.88;;;28.58;;
70026;SDS011;57506;50.092;15.804;2022-10-17T00:31:56;57.30;;;29.67;;
70026;SDS011;57506;50.092;15.804;2022-10-17T00:34:22;48.70;;;27.70;;
70026;SDS011;57506;50.092;15.804;2022-10-17T00:36:48;59.72;;;30.33;;
70026;SDS011;57506;50.092;15.804;2022-10-17T00:39:13;55.57;;;28.60;;
70026;SDS011;57506;50.092;15.804;2022-10-17T00:41:39;50.33;;;28.60;;
70026;SDS011;57506;50.092;15.804;2022-10-17T00:46:35;51.28;;;28.63;;
70026;SDS011;57506;50.092;15.804;2022-10-17T00:49:04;53.25;;;27.13;;
70026;SDS011;57506;50.092;15.804;2022-10-17T00:54:13;48.20;;;26.63;;
70026;SDS011;57506;50.092;15.804;2022-10-17T00:56:42;49.75;;;26.70;;
70026;SDS011;57506;50.092;15.804;2022-10-17T00:59:10;51.67;;;26.73;;
70026;SDS011;57506;50.092;15.804;2022-10-17T01:01:40;57.95;;;29.38;;
70026;SDS011;57506;50.092;15.804;2022-10-17T01:04:12;53.50;;;27.92;;
70026;SDS011;57506;50.092;15.804;2022-10-17T01:06:38;50.90;;;27.93;;
70026;SDS011;57506;50.092;15.804;2022-10-17T01:09:03;58.67;;;28.87;;
70026;SDS011;57506;50.092;15.804;2022-10-17T01:17:14;51.97;;;27.20;;
70026;SDS011;57506;50.092;15.804;2022-10-17T01:28:38;48.85;;;26.63;;
70026;SDS011;57506;50.092;15.804;2022-10-17T01:34:26;50.40;;;28.10;;
70026;SDS011;57506;50.092;15.804;2022-10-17T01:36:59;52.47;;;25.85;;
70026;SDS011;57506;50.092;15.804;2022-10-17T01:44:42;56.83;;;27.57;;
70026;SDS011;57506;50.092;15.804;2022-10-17T01:47:29;54.67;;;28.33;;
70026;SDS011;57506;50.092;15.804;2022-10-17T01:49:57;55.50;;;28.17;;
70026;SDS011;57506;50.092;15.804;2022-10-17T01:52:28;54.08;;;28.00;;
70026;SDS011;57506;50.092;15.804;2022-10-17T01:55:10;52.40;;;28.00;;
70026;SDS011;57506;50.092;15.804;2022-10-17T01:57:47;57.87;;;27.70;;
70026;SDS011;57506;50.092;15.804;2022-10-17T02:00:21;57.20;;;29.48;;
70026;SDS011;57506;50.092;15.804;2022-10-17T02:02:49;59.47;;;29.27;;
70026;SDS011;57506;50.092;15.804;2022-10-17T02:05:20;60.55;;;30.25;;
70026;SDS011;57506;50.092;15.804;2022-10-17T02:07:50;57.92;;;28.70;;
70026;SDS011;57506;50.092;15.804;2022-10-17T02:10:18;53.20;;;26.93;;
70026;SDS011;57506;50.092;15.804;2022-10-17T02:13:03;56.47;;;29.55;;
70026;SDS011;57506;50.092;15.804;2022-10-17T02:21:15;60.03;;;29.95;;
70026;SDS011;57506;50.092;15.804;2022-10-17T02:24:07;52.45;;;27.63;;
70026;SDS011;57506;50.092;15.804;2022-10-17T02:26:52;60.80;;;28.30;;
70026;SDS011;57506;50.092;15.804;2022-10-17T02:29:26;56.87;;;29.30;;
70026;SDS011;57506;50.092;15.804;2022-10-17T02:34:57;56.40;;;28.50;;
70026;SDS011;57506;50.092;15.804;2022-10-17T02:37:27;56.95;;;29.00;;
70026;SDS011;57506;50.092;15.804;2022-10-17T02:39:55;59.42;;;29.42;;
70026;SDS011;57506;50.092;15.804;2022-10-17T02:42:23;63.23;;;28.50;;
70026;SDS011;57506;50.092;15.804;2022-10-17T02:44:51;53.83;;;28.10;;
70026;SDS011;57506;50.092;15.804;2022-10-17T02:47:25;52.28;;;26.98;;
70026;SDS011;57506;50.092;15.804;2022-10-17T02:49:53;49.50;;;25.83;;
70026;SDS011;57506;50.092;15.804;2022-10-17T02:55:50;61.13;;;29.60;;
70026;SDS011;57506;50.092;15.804;2022-10-17T02:58:06;68.95;;;32.17;;
70026;SDS011;57506;50.092;15.804;2022-10-17T03:00:37;69.10;;;31.48;;
70026;SDS011;57506;50.092;15.804;2022-10-17T03:03:17;66.82;;;30.52;;
70026;SDS011;57506;50.092;15.804;2022-10-17T03:05:47;61.80;;;30.40;;
70026;SDS011;57506;50.092;15.804;2022-10-17T03:08:13;60.23;;;29.50;;
70026;SDS011;57506;50.092;15.804;2022-10-17T03:10:38;53.47;;;29.07;;
70026;SDS011;57506;50.092;15.804;2022-10-17T03:13:04;60.25;;;29.98;;
70026;SDS011;57506;50.092;15.804;2022-10-17T03:15:29;57.60;;;30.60;;
70026;SDS011;57506;50.092;15.804;2022-10-17T03:17:55;62.60;;;28.83;;
70026;SDS011;57506;50.092;15.804;2022-10-17T03:20:20;63.08;;;30.40;;
70026;SDS011;57506;50.092;15.804;2022-10-17T03:22:46;59.10;;;29.93;;
70026;SDS011;57506;50.092;15.804;2022-10-17T03:25:11;56.47;;;28.30;;
70026;SDS011;57506;50.092;15.804;2022-10-17T03:27:37;51.45;;;27.00;;
70026;SDS011;57506;50.092;15.804;2022-10-17T03:30:03;55.83;;;27.57;;
70026;SDS011;57506;50.092;15.804;2022-10-17T03:32:29;55.65;;;29.02;;
70026;SDS011;57506;50.092;15.804;2022-10-17T03:34:57;54.75;;;27.83;;
70026;SDS011;57506;50.092;15.804;2022-10-17T03:37:22;56.00;;;28.80;;
70026;SDS011;57506;50.092;15.804;2022-10-17T03:39:48;52.47;;;27.77;;
70026;SDS011;57506;50.092;15.804;2022-10-17T03:42:13;51.25;;;28.08;;
70026;SDS011;57506;50.092;15.804;2022-10-17T03:44:39;58.93;;;28.87;;
70026;SDS011;57506;50.092;15.804;2022-10-17T03:47:04;58.35;;;29.05;;
70026;SDS011;57506;50.092;15.804;2022-10-17T03:49:30;59.03;;;30.40;;
70026;SDS011;57506;50.092;15.804;2022-10-17T03:51:55;58.70;;;29.00;;
70026;SDS011;57506;50.092;15.804;2022-10-17T03:54:21;62.20;;;28.67;;
70026;SDS011;57506;50.092;15.804;2022-10-17T03:56:47;57.93;;;28.60;;
70026;SDS011;57506;50.092;15.804;2022-10-17T03:59:13;55.87;;;28.37;;
70026;SDS011;57506;50.092;15.804;2022-10-17T04:01:39;54.40;;;28.17;;
70026;SDS011;57506;50.092;15.804;2022-10-17T04:04:05;55.22;;;28.58;;
70026;SDS011;57506;50.092;15.804;2022-10-17T04:06:30;51.63;;;27.00;;
70026;SDS011;57506;50.092;15.804;2022-10-17T04:08:56;49.30;;;26.77;;
70026;SDS011;57506;50.092;15.804;2022-10-17T04:11:22;50.90;;;27.10;;
70026;SDS011;57506;50.092;15.804;2022-10-17T04:13:51;51.60;;;26.00;;
70026;SDS011;57506;50.092;15.804;2022-10-17T04:16:18;48.05;;;24.58;;
70026;SDS011;57506;50.092;15.804;2022-10-17T04:18:44;50.00;;;25.13;;
70026;SDS011;57506;50.092;15.804;2022-10-17T04:21:10;52.80;;;26.92;;
70026;SDS011;57506;50.092;15.804;2022-10-17T04:23:36;58.83;;;27.77;;
70026;SDS011;57506;50.092;15.804;2022-10-17T04:26:03;58.70;;;29.38;;
70026;SDS011;57506;50.092;15.804;2022-10-17T04:28:29;55.97;;;29.38;;
70026;SDS011;57506;50.092;15.804;2022-10-17T04:31:00;55.08;;;28.83;;
70026;SDS011;57506;50.092;15.804;2022-10-17T04:33:27;71.45;;;30.35;;
70026;SDS011;57506;50.092;15.804;2022-10-17T04:35:54;66.53;;;30.37;;
70026;SDS011;57506;50.092;15.804;2022-10-17T04:38:22;58.05;;;28.42;;
70026;SDS011;57506;50.092;15.804;2022-10-17T04:40:47;60.77;;;28.17;;
70026;SDS011;57506;50.092;15.804;2022-10-17T04:43:13;60.87;;;29.57;;
70026;SDS011;57506;50.092;15.804;2022-10-17T04:45:38;63.77;;;29.73;;
70026;SDS011;57506;50.092;15.804;2022-10-17T04:48:04;56.63;;;28.20;;
70026;SDS011;57506;50.092;15.804;2022-10-17T04:50:29;54.92;;;28.30;;
70026;SDS011;57506;50.092;15.804;2022-10-17T04:52:55;57.10;;;26.53;;
70026;SDS011;57506;50.092;15.804;2022-10-17T04:55:20;54.47;;;26.93;;
70026;SDS011;57506;50.092;15.804;2022-10-17T04:57:46;59.88;;;28.48;;
70026;SDS011;57506;50.092;15.804;2022-10-17T05:00:12;56.33;;;27.97;;
70026;SDS011;57506;50.092;15.804;2022-10-17T05:02:37;60.55;;;28.58;;
70026;SDS011;57506;50.092;15.804;2022-10-17T05:05:03;56.70;;;27.27;;
70026;SDS011;57506;50.092;15.804;2022-10-17T05:07:29;56.78;;;27.77;;
70026;SDS011;57506;50.092;15.804;2022-10-17T05:09:54;51.33;;;26.37;;
70026;SDS011;57506;50.092;15.804;2022-10-17T05:12:19;48.67;;;26.03;;
70026;SDS011;57506;50.092;15.804;2022-10-17T05:14:45;53.13;;;26.87;;
70026;SDS011;57506;50.092;15.804;2022-10-17T05:17:10;49.22;;;25.92;;
70026;SDS011;57506;50.092;15.804;2022-10-17T05:19:36;51.30;;;26.47;;
70026;SDS011;57506;50.092;15.804;2022-10-17T05:22:01;43.97;;;24.07;;
70026;SDS011;57506;50.092;15.804;2022-10-17T05:24:27;46.85;;;23.85;;
70026;SDS011;57506;50.092;15.804;2022-10-17T05:26:52;42.63;;;23.20;;
70026;SDS011;57506;50.092;15.804;2022-10-17T05:29:18;44.70;;;23.37;;
70026;SDS011;57506;50.092;15.804;2022-10-17T05:31:43;43.83;;;23.60;;
70026;SDS011;57506;50.092;15.804;2022-10-17T05:34:09;45.72;;;23.92;;
70026;SDS011;57506;50.092;15.804;2022-10-17T05:36:34;41.63;;;23.27;;
70026;SDS011;57506;50.092;15.804;2022-10-17T05:39:00;49.63;;;22.13;;
70026;SDS011;57506;50.092;15.804;2022-10-17T05:41:25;45.75;;;23.33;;
70026;SDS011;57506;50.092;15.804;2022-10-17T05:43:51;42.23;;;22.43;;
70026;SDS011;57506;50.092;15.804;2022-10-17T05:46:16;42.07;;;22.33;;
70026;SDS011;57506;50.092;15.804;2022-10-17T05:48:42;42.15;;;21.92;;
70026;SDS011;57506;50.092;15.804;2022-10-17T05:51:08;37.00;;;21.60;;
70026;SDS011;57506;50.092;15.804;2022-10-17T05:53:36;41.40;;;22.58;;
70026;SDS011;57506;50.092;15.804;2022-10-17T05:56:03;41.22;;;22.05;;
70026;SDS011;57506;50.092;15.804;2022-10-17T05:58:31;42.03;;;21.93;;
70026;SDS011;57506;50.092;15.804;2022-10-17T06:00:59;38.97;;;21.27;;
70026;SDS011;57506;50.092;15.804;2022-10-17T06:03:25;39.88;;;21.90;;
70026;SDS011;57506;50.092;15.804;2022-10-17T06:05:52;35.78;;;21.00;;
70026;SDS011;57506;50.092;15.804;2022-10-17T06:08:18;37.80;;;21.60;;
70026;SDS011;57506;50.092;15.804;2022-10-17T06:10:46;35.63;;;21.40;;
70026;SDS011;57506;50.092;15.804;2022-10-17T06:13:13;41.58;;;22.83;;
70026;SDS011;57506;50.092;15.804;2022-10-17T06:15:38;39.07;;;22.23;;
70026;SDS011;57506;50.092;15.804;2022-10-17T06:18:04;40.03;;;21.63;;
70026;SDS011;57506;50.092;15.804;2022-10-17T06:20:30;40.87;;;21.20;;
70026;SDS011;57506;50.092;15.804;2022-10-17T06:22:55;36.88;;;21.02;;
70026;SDS011;57506;50.092;15.804;2022-10-17T06:25:21;39.00;;;21.03;;
70026;SDS011;57506;50.092;15.804;2022-10-17T06:27:46;33.60;;;20.50;;
70026;SDS011;57506;50.092;15.804;2022-10-17T06:30:12;37.30;;;21.17;;
70026;SDS011;57506;50.092;15.804;2022-10-17T06:32:38;34.93;;;21.27;;
70026;SDS011;57506;50.092;15.804;2022-10-17T06:35:03;36.78;;;20.83;;
70026;SDS011;57506;50.092;15.804;2022-10-17T06:37:30;34.93;;;20.17;;
70026;SDS011;57506;50.092;15.804;2022-10-17T06:39:57;31.02;;;19.05;;
70026;SDS011;57506;50.092;15.804;2022-10-17T06:42:23;31.17;;;19.98;;
70026;SDS011;57506;50.092;15.804;2022-10-17T06:44:48;33.13;;;19.33;;
70026;SDS011;57506;50.092;15.804;2022-10-17T06:47:14;32.63;;;18.83;;
70026;SDS011;57506;50.092;15.804;2022-10-17T06:49:39;33.17;;;18.60;;
70026;SDS011;57506;50.092;15.804;2022-10-17T06:52:05;32.07;;;18.53;;
70026;SDS011;57506;50.092;15.804;2022-10-17T06:54:30;33.88;;;18.38;;
70026;SDS011;57506;50.092;15.804;2022-10-17T06:56:56;31.73;;;18.60;;
70026;SDS011;57506;50.092;15.804;2022-10-17T06:59:22;33.80;;;17.33;;
70026;SDS011;57506;50.092;15.804;2022-10-17T07:01:47;28.40;;;17.50;;
70026;SDS011;57506;50.092;15.804;2022-10-17T07:04:13;30.20;;;17.60;;
70026;SDS011;57506;50.092;15.804;2022-10-17T07:06:38;32.90;;;16.95;;
70026;SDS011;57506;50.092;15.804;2022-10-17T07:09:04;30.40;;;18.53;;
70026;SDS011;57506;50.092;15.804;2022-10-17T07:11:33;34.83;;;17.67;;
70026;SDS011;57506;50.092;15.804;2022-10-17T07:13:59;30.00;;;17.15;;
70026;SDS011;57506;50.092;15.804;2022-10-17T07:16:25;28.73;;;16.77;;
70026;SDS011;57506;50.092;15.804;2022-10-17T07:18:51;31.67;;;17.63;;
70026;SDS011;57506;50.092;15.804;2022-10-17T07:21:18;31.45;;;17.88;;
70026;SDS011;57506;50.092;15.804;2022-10-17T07:23:44;30.10;;;17.38;;
70026;SDS011;57506;50.092;15.804;2022-10-17T07:26:11;30.42;;;16.52;;
70026;SDS011;57506;50.092;15.804;2022-10-17T07:28:39;27.98;;;16.27;;
70026;SDS011;57506;50.092;15.804;2022-10-17T07:31:07;27.57;;;16.40;;
70026;SDS011;57506;50.092;15.804;2022-10-17T07:33:34;29.40;;;17.13;;
70026;SDS011;57506;50.092;15.804;2022-10-17T07:36:00;27.10;;;17.88;;
70026;SDS011;57506;50.092;15.804;2022-10-17T07:38:27;27.93;;;16.70;;
70026;SDS011;57506;50.092;15.804;2022-10-17T07:40:54;29.83;;;17.98;;
70026;SDS011;57506;50.092;15.804;2022-10-17T07:43:23;29.60;;;17.75;;
70026;SDS011;57506;50.092;15.804;2022-10-17T07:45:50;27.42;;;17.02;;
70026;SDS011;57506;50.092;15.804;2022-10-17T07:48:16;30.02;;;18.10;;
70026;SDS011;57506;50.092;15.804;2022-10-17T07:50:41;30.93;;;18.07;;
70026;SDS011;57506;50.092;15.804;2022-10-17T07:53:07;27.40;;;17.93;;
70026;SDS011;57506;50.092;15.804;2022-10-17T07:55:33;29.20;;;17.17;;
70026;SDS011;57506;50.092;15.804;2022-10-17T07:57:59;28.00;;;18.08;;
70026;SDS011;57506;50.092;15.804;2022-10-17T08:00:25;28.07;;;17.70;;
70026;SDS011;57506;50.092;15.804;2022-10-17T08:02:51;31.13;;;18.10;;
70026;SDS011;57506;50.092;15.804;2022-10-17T08:05:16;29.30;;;18.07;;
70026;SDS011;57506;50.092;15.804;2022-10-17T08:07:42;29.98;;;17.75;;
70026;SDS011;57506;50.092;15.804;2022-10-17T08:10:09;29.67;;;16.93;;
70026;SDS011;57506;50.092;15.804;2022-10-17T08:12:36;26.73;;;16.77;;
70026;SDS011;57506;50.092;15.804;2022-10-17T08:15:02;27.40;;;17.80;;
70026;SDS011;57506;50.092;15.804;2022-10-17T08:17:28;25.58;;;16.70;;
70026;SDS011;57506;50.092;15.804;2022-10-17T08:19:54;26.63;;;17.73;;
70026;SDS011;57506;50.092;15.804;2022-10-17T08:22:20;28.55;;;17.27;;
70026;SDS011;57506;50.092;15.804;2022-10-17T08:24:45;29.43;;;17.80;;
70026;SDS011;57506;50.092;15.804;2022-10-17T08:27:11;27.63;;;16.90;;
70026;SDS011;57506;50.092;15.804;2022-10-17T08:29:40;31.53;;;17.60;;
70026;SDS011;57506;50.092;15.804;2022-10-17T08:32:06;26.52;;;17.35;;
70026;SDS011;57506;50.092;15.804;2022-10-17T08:34:33;26.38;;;17.02;;
70026;SDS011;57506;50.092;15.804;2022-10-17T08:36:59;26.17;;;16.90;;
70026;SDS011;57506;50.092;15.804;2022-10-17T08:39:25;25.92;;;16.73;;
70026;SDS011;57506;50.092;15.804;2022-10-17T08:44:59;26.05;;;16.38;;
70026;SDS011;57506;50.092;15.804;2022-10-17T08:47:42;25.02;;;16.42;;
70026;SDS011;57506;50.092;15.804;2022-10-17T08:53:05;29.25;;;16.52;;
70026;SDS011;57506;50.092;15.804;2022-10-17T08:55:48;28.55;;;16.35;;
70026;SDS011;57506;50.092;15.804;2022-10-17T08:58:31;27.50;;;15.60;;
70026;SDS011;57506;50.092;15.804;2022-10-17T09:03:32;28.97;;;16.30;;
70026;SDS011;57506;50.092;15.804;2022-10-17T09:17:25;25.55;;;15.02;;
70026;SDS011;57506;50.092;15.804;2022-10-17T09:20:00;28.27;;;15.50;;
70026;SDS011;57506;50.092;15.804;2022-10-17T09:22:46;30.50;;;15.25;;
70026;SDS011;57506;50.092;15.804;2022-10-17T09:25:19;25.77;;;15.20;;
70026;SDS011;57506;50.092;15.804;2022-10-17T09:27:50;26.88;;;15.90;;
70026;SDS011;57506;50.092;15.804;2022-10-17T09:30:31;21.92;;;14.85;;
70026;SDS011;57506;50.092;15.804;2022-10-17T09:33:00;28.70;;;15.63;;
70026;SDS011;57506;50.092;15.804;2022-10-17T09:35:35;25.75;;;14.20;;
70026;SDS011;57506;50.092;15.804;2022-10-17T09:38:01;26.87;;;15.30;;
70026;SDS011;57506;50.092;15.804;2022-10-17T09:40:33;26.10;;;15.30;;
70026;SDS011;57506;50.092;15.804;2022-10-17T09:43:00;25.20;;;15.93;;
70026;SDS011;57506;50.092;15.804;2022-10-17T09:45:29;25.43;;;14.43;;
70026;SDS011;57506;50.092;15.804;2022-10-17T09:48:21;24.73;;;14.77;;
70026;SDS011;57506;50.092;15.804;2022-10-17T09:50:54;26.65;;;14.50;;
70026;SDS011;57506;50.092;15.804;2022-10-17T09:53:22;23.40;;;15.18;;
70026;SDS011;57506;50.092;15.804;2022-10-17T09:55:54;27.95;;;14.63;;
70026;SDS011;57506;50.092;15.804;2022-10-17T09:58:22;24.50;;;14.63;;
70026;SDS011;57506;50.092;15.804;2022-10-17T10:00:48;25.88;;;15.20;;
70026;SDS011;57506;50.092;15.804;2022-10-17T10:03:20;24.00;;;13.82;;
70026;SDS011;57506;50.092;15.804;2022-10-17T10:11:14;22.77;;;15.18;;
70026;SDS011;57506;50.092;15.804;2022-10-17T10:13:41;24.10;;;14.75;;
70026;SDS011;57506;50.092;15.804;2022-10-17T10:16:14;23.45;;;15.40;;
70026;SDS011;57506;50.092;15.804;2022-10-17T10:18:43;24.85;;;15.10;;
70026;SDS011;57506;50.092;15.804;2022-10-17T10:21:19;22.97;;;14.80;;
70026;SDS011;57506;50.092;15.804;2022-10-17T10:29:06;21.77;;;14.35;;
70026;SDS011;57506;50.092;15.804;2022-10-17T10:31:44;25.77;;;15.13;;
70026;SDS011;57506;50.092;15.804;2022-10-17T10:34:27;26.20;;;16.13;;
70026;SDS011;57506;50.092;15.804;2022-10-17T10:42:33;25.25;;;15.57;;
70026;SDS011;57506;50.092;15.804;2022-10-17T10:45:03;21.83;;;15.55;;
70026;SDS011;57506;50.092;15.804;2022-10-17T10:47:48;26.17;;;15.10;;
70026;SDS011;57506;50.092;15.804;2022-10-17T10:53:13;25.45;;;15.63;;
70026;SDS011;57506;50.092;15.804;2022-10-17T10:56:00;22.17;;;14.43;;
70026;SDS011;57506;50.092;15.804;2022-10-17T10:58:54;29.63;;;15.27;;
70026;SDS011;57506;50.092;15.804;2022-10-17T11:06:46;23.73;;;13.57;;
70026;SDS011;57506;50.092;15.804;2022-10-17T11:09:22;20.70;;;14.05;;
70026;SDS011;57506;50.092;15.804;2022-10-17T11:11:52;20.95;;;14.35;;
70026;SDS011;57506;50.092;15.804;2022-10-17T11:20:11;22.67;;;13.10;;
70026;SDS011;57506;50.092;15.804;2022-10-17T11:22:47;30.02;;;14.30;;
70026;SDS011;57506;50.092;15.804;2022-10-17T11:25:19;21.33;;;13.52;;
70026;SDS011;57506;50.092;15.804;2022-10-17T11:28:16;25.58;;;13.65;;
70026;SDS011;57506;50.092;15.804;2022-10-17T11:33:24;20.27;;;12.13;;
70026;SDS011;57506;50.092;15.804;2022-10-17T11:36:05;19.40;;;12.68;;
70026;SDS011;57506;50.092;15.804;2022-10-17T11:41:21;19.20;;;11.82;;
70026;SDS011;57506;50.092;15.804;2022-10-17T11:43:58;19.13;;;11.95;;
70026;SDS011;57506;50.092;15.804;2022-10-17T11:46:26;16.17;;;11.17;;
70026;SDS011;57506;50.092;15.804;2022-10-17T11:48:57;20.58;;;12.40;;
70026;SDS011;57506;50.092;15.804;2022-10-17T11:51:53;17.67;;;10.65;;
70026;SDS011;57506;50.092;15.804;2022-10-17T11:54:27;19.20;;;11.77;;
70026;SDS011;57506;50.092;15.804;2022-10-17T12:13:52;20.38;;;10.45;;
70026;SDS011;57506;50.092;15.804;2022-10-17T12:18:46;21.77;;;10.73;;
70026;SDS011;57506;50.092;15.804;2022-10-17T12:21:13;19.13;;;10.15;;
70026;SDS011;57506;50.092;15.804;2022-10-17T12:23:39;15.37;;;10.10;;
70026;SDS011;57506;50.092;15.804;2022-10-17T12:26:08;16.38;;;10.38;;
70026;SDS011;57506;50.092;15.804;2022-10-17T12:33:59;14.67;;;9.77;;
70026;SDS011;57506;50.092;15.804;2022-10-17T12:54:46;15.40;;;9.90;;
70026;SDS011;57506;50.092;15.804;2022-10-17T12:57:20;21.40;;;10.10;;
70026;SDS011;57506;50.092;15.804;2022-10-17T12:59:51;20.05;;;10.13;;
70026;SDS011;57506;50.092;15.804;2022-10-17T13:02:21;13.85;;;9.27;;
70026;SDS011;57506;50.092;15.804;2022-10-17T13:04:54;19.42;;;8.93;;
70026;SDS011;57506;50.092;15.804;2022-10-17T13:07:28;18.20;;;9.47;;
70026;SDS011;57506;50.092;15.804;2022-10-17T13:09:54;16.20;;;9.68;;
70026;SDS011;57506;50.092;15.804;2022-10-17T13:12:24;15.70;;;9.47;;
70026;SDS011;57506;50.092;15.804;2022-10-17T13:14:51;16.73;;;9.77;;
70026;SDS011;57506;50.092;15.804;2022-10-17T13:17:20;19.08;;;10.05;;
70026;SDS011;57506;50.092;15.804;2022-10-17T13:19:51;21.70;;;10.43;;
70026;SDS011;57506;50.092;15.804;2022-10-17T13:24:52;16.55;;;10.23;;
70026;SDS011;57506;50.092;15.804;2022-10-17T13:27:31;14.97;;;10.20;;
70026;SDS011;57506;50.092;15.804;2022-10-17T13:29:59;15.20;;;9.77;;
70026;SDS011;57506;50.092;15.804;2022-10-17T13:32:34;16.48;;;9.85;;
70026;SDS011;57506;50.092;15.804;2022-10-17T13:35:05;16.42;;;9.90;;
70026;SDS011;57506;50.092;15.804;2022-10-17T13:37:46;18.65;;;10.68;;
70026;SDS011;57506;50.092;15.804;2022-10-17T13:40:20;15.63;;;9.77;;
70026;SDS011;57506;50.092;15.804;2022-10-17T13:42:48;20.13;;;9.77;;
70026;SDS011;57506;50.092;15.804;2022-10-17T13:45:19;18.92;;;9.38;;
70026;SDS011;57506;50.092;15.804;2022-10-17T13:47:46;15.88;;;9.75;;
70026;SDS011;57506;50.092;15.804;2022-10-17T13:50:15;16.80;;;9.93;;
70026;SDS011;57506;50.092;15.804;2022-10-17T13:52:47;17.73;;;10.27;;
70026;SDS011;57506;50.092;15.804;2022-10-17T13:55:16;14.27;;;9.23;;
70026;SDS011;57506;50.092;15.804;2022-10-17T13:57:44;14.45;;;9.15;;
70026;SDS011;57506;50.092;15.804;2022-10-17T14:00:14;15.77;;;10.00;;
70026;SDS011;57506;50.092;15.804;2022-10-17T14:02:43;18.30;;;10.05;;
70026;SDS011;57506;50.092;15.804;2022-10-17T14:05:10;17.73;;;10.00;;
70026;SDS011;57506;50.092;15.804;2022-10-17T14:12:57;18.48;;;9.55;;
70026;SDS011;57506;50.092;15.804;2022-10-17T14:15:27;15.60;;;9.30;;
70026;SDS011;57506;50.092;15.804;2022-10-17T14:17:58;17.98;;;10.50;;
70026;SDS011;57506;50.092;15.804;2022-10-17T14:20:27;16.40;;;9.95;;
70026;SDS011;57506;50.092;15.804;2022-10-17T14:22:54;15.75;;;10.02;;
70026;SDS011;57506;50.092;15.804;2022-10-17T14:25:27;18.05;;;10.20;;
70026;SDS011;57506;50.092;15.804;2022-10-17T14:27:56;18.57;;;9.87;;
70026;SDS011;57506;50.092;15.804;2022-10-17T14:30:52;14.98;;;9.63;;
70026;SDS011;57506;50.092;15.804;2022-10-17T14:33:22;17.00;;;10.25;;
70026;SDS011;57506;50.092;15.804;2022-10-17T14:35:54;15.82;;;9.88;;
70026;SDS011;57506;50.092;15.804;2022-10-17T14:38:21;14.57;;;9.85;;
70026;SDS011;57506;50.092;15.804;2022-10-17T14:40:52;16.47;;;10.33;;
70026;SDS011;57506;50.092;15.804;2022-10-17T14:43:20;16.73;;;9.60;;
70026;SDS011;57506;50.092;15.804;2022-10-17T14:45:50;16.83;;;10.07;;
70026;SDS011;57506;50.092;15.804;2022-10-17T14:48:17;16.75;;;9.88;;
70026;SDS011;57506;50.092;15.804;2022-10-17T14:56:27;20.00;;;10.18;;
70026;SDS011;57506;50.092;15.804;2022-10-17T14:59:05;15.32;;;10.65;;
70026;SDS011;57506;50.092;15.804;2022-10-17T15:01:32;19.17;;;10.15;;
70026;SDS011;57506;50.092;15.804;2022-10-17T15:03:58;18.35;;;10.90;;
70026;SDS011;57506;50.092;15.804;2022-10-17T15:06:28;15.00;;;10.40;;
70026;SDS011;57506;50.092;15.804;2022-10-17T15:08:56;18.02;;;10.63;;
70026;SDS011;57506;50.092;15.804;2022-10-17T15:11:22;19.13;;;11.00;;
70026;SDS011;57506;50.092;15.804;2022-10-17T15:13:48;20.40;;;11.07;;
70026;SDS011;57506;50.092;15.804;2022-10-17T15:16:17;15.55;;;10.65;;
70026;SDS011;57506;50.092;15.804;2022-10-17T15:18:44;17.85;;;12.10;;
70026;SDS011;57506;50.092;15.804;2022-10-17T15:21:13;15.00;;;10.87;;
70026;SDS011;57506;50.092;15.804;2022-10-17T15:23:40;17.55;;;11.23;;
70026;SDS011;57506;50.092;15.804;2022-10-17T15:28:43;18.42;;;10.55;;
70026;SDS011;57506;50.092;15.804;2022-10-17T15:31:13;20.27;;;11.03;;
70026;SDS011;57506;50.092;15.804;2022-10-17T15:33:41;16.88;;;10.85;;
70026;SDS011;57506;50.092;15.804;2022-10-17T15:36:18;18.73;;;10.85;;
70026;SDS011;57506;50.092;15.804;2022-10-17T15:38:50;18.73;;;11.20;;
70026;SDS011;57506;50.092;15.804;2022-10-17T15:41:17;21.40;;;11.27;;
70026;SDS011;57506;50.092;15.804;2022-10-17T15:43:43;16.20;;;10.90;;
70026;SDS011;57506;50.092;15.804;2022-10-17T15:46:13;18.88;;;10.93;;
70026;SDS011;57506;50.092;15.804;2022-10-17T15:48:41;16.08;;;11.00;;
70026;SDS011;57506;50.092;15.804;2022-10-17T15:51:07;16.80;;;11.47;;
70026;SDS011;57506;50.092;15.804;2022-10-17T15:53:33;21.90;;;12.60;;
70026;SDS011;57506;50.092;15.804;2022-10-17T15:55:59;21.00;;;11.73;;
70026;SDS011;57506;50.092;15.804;2022-10-17T15:58:33;23.45;;;12.32;;
70026;SDS011;57506;50.092;15.804;2022-10-17T16:01:02;22.73;;;12.63;;
70026;SDS011;57506;50.092;15.804;2022-10-17T16:03:29;19.90;;;12.52;;
70026;SDS011;57506;50.092;15.804;2022-10-17T16:05:55;20.95;;;13.43;;
70026;SDS011;57506;50.092;15.804;2022-10-17T16:08:21;19.93;;;12.20;;
70026;SDS011;57506;50.092;15.804;2022-10-17T16:10:47;22.83;;;12.40;;
70026;SDS011;57506;50.092;15.804;2022-10-17T16:13:16;22.38;;;12.65;;
70026;SDS011;57506;50.092;15.804;2022-10-17T16:15:44;33.13;;;21.88;;
70026;SDS011;57506;50.092;15.804;2022-10-17T16:18:10;28.83;;;19.70;;
70026;SDS011;57506;50.092;15.804;2022-10-17T16:20:36;27.30;;;15.05;;
70026;SDS011;57506;50.092;15.804;2022-10-17T16:23:02;26.48;;;13.30;;
70026;SDS011;57506;50.092;15.804;2022-10-17T16:25:29;25.37;;;14.97;;
70026;SDS011;57506;50.092;15.804;2022-10-17T16:27:57;25.15;;;13.68;;
70026;SDS011;57506;50.092;15.804;2022-10-17T16:30:24;21.75;;;12.88;;
70026;SDS011;57506;50.092;15.804;2022-10-17T16:32:52;21.45;;;13.68;;
70026;SDS011;57506;50.092;15.804;2022-10-17T16:35:19;22.15;;;13.60;;
70026;SDS011;57506;50.092;15.804;2022-10-17T16:37:47;22.43;;;14.07;;
70026;SDS011;57506;50.092;15.804;2022-10-17T16:40:13;20.05;;;12.60;;
70026;SDS011;57506;50.092;15.804;2022-10-17T16:42:39;24.23;;;12.65;;
70026;SDS011;57506;50.092;15.804;2022-10-17T16:45:05;23.00;;;13.38;;
70026;SDS011;57506;50.092;15.804;2022-10-17T16:47:31;19.47;;;12.67;;
70026;SDS011;57506;50.092;15.804;2022-10-17T16:49:57;27.98;;;12.68;;
70026;SDS011;57506;50.092;15.804;2022-10-17T16:52:23;20.17;;;13.00;;
70026;SDS011;57506;50.092;15.804;2022-10-17T16:54:48;21.75;;;12.75;;